Flight Track Log - Related Links

Times and Time Zones

All times are in EDT time to prevent confusion due to time zone crossing. See the TRS587 flight status page for this flight to view local times or setup timezone preferences in your user account.

Time Position Orientation Groundspeed Altitude Reporting Facility
EDT Latitude Longitude Course Direction KTS MPH feet Rate Location/Type
Sun 10:37:58 AM 28.4333 -81.3000 348° North 163 188 1,000  Level Orlando TRACON
Sun 10:39:10 AM 28.5000 -81.3167 348° North 222 255 2,700 1,652 Climbing Orlando TRACON
Sun 10:40:16 AM 28.5500 -81.3667 319° Northwest 273 314 4,800 1,983 Climbing Orlando TRACON
Sun 10:41:11 AM 28.5500 -81.4500 270° West 278 320 6,700 2,296 Climbing Orlando TRACON
Sun 10:42:11 AM 28.5500 -81.5333 270° West 289 333 9,200 1,686 Climbing Orlando TRACON
Sun 10:44:41 AM 28.5231 -81.8011 264° West 340 391 12,600 1,400 Climbing Jacksonville Center
Sun 10:45:41 AM 28.5281 -81.9192 273° West 361 415 14,100 1,600 Climbing Jacksonville Center
Sun 10:46:41 AM 28.5456 -82.0394 279° West 380 437 15,800 1,500 Climbing Jacksonville Center
Sun 10:47:41 AM 28.5611 -82.1503 279° West 391 450 17,100 1,350 Climbing Jacksonville Center
Sun 10:48:41 AM 28.5867 -82.2897 282° West 407 468 18,500 1,500 Climbing Jacksonville Center
Sun 10:49:41 AM 28.6103 -82.4219 282° West 418 481 20,100 1,650 Climbing Jacksonville Center
Sun 10:50:41 AM 28.6400 -82.5519 285° West 424 488 21,800 1,450 Climbing Jacksonville Center
Sun 10:51:41 AM 28.7319 -82.6275 324° Northwest 399 459 23,000 1,200 Climbing Jacksonville Center
Sun 10:52:41 AM 28.8467 -82.6792 338° Northwest 410 472 24,200 1,100 Climbing Jacksonville Center
Sun 10:53:41 AM 28.9658 -82.7336 338° Northwest 422 486 25,200 1,000 Climbing Jacksonville Center
Sun 10:54:41 AM 29.0828 -82.7906 337° Northwest 442 509 26,200 1,000 Climbing Jacksonville Center
Sun 10:55:41 AM 29.2039 -82.8450 339° North 453 521 27,200 1,050 Climbing Jacksonville Center
Sun 10:56:41 AM 29.3250 -82.9022 338° Northwest 460 529 28,300 1,000 Climbing Jacksonville Center
Sun 10:57:41 AM 29.4461 -82.9594 338° Northwest 465 535 29,200 1,050 Climbing Jacksonville Center
Sun 10:58:41 AM 29.5567 -83.0119 338° Northwest 475 547 30,400 1,200 Climbing Jacksonville Center
Sun 10:59:41 AM 29.6756 -83.0719 336° Northwest 469 540 31,600 800 Climbing Jacksonville Center
Sun 11:00:41 AM 29.7944 -83.1247 339° North 463 533 32,000 200 Climbing Jacksonville Center
Sun 11:01:41 AM 29.9069 -83.1800 337° Northwest 452 520 32,000  Level Jacksonville Center
Sun 11:02:41 AM 30.0322 -83.2381 338° Northwest 457 526 32,000  Level Jacksonville Center
Sun 11:03:41 AM 30.1469 -83.2914 338° Northwest 457 526 32,000  Level Jacksonville Center
Sun 11:04:41 AM 30.2594 -83.3447 338° Northwest 452 520 32,000  Level Jacksonville Center
Sun 11:05:41 AM 30.3719 -83.3983 338° Northwest 441 507 32,000  Level Jacksonville Center
Sun 11:06:41 AM 30.4867 -83.4519 338° Northwest 441 507 32,000  Level Jacksonville Center
Sun 11:07:41 AM 30.6011 -83.5081 337° Northwest 441 507 32,000  Level Jacksonville Center
Sun 11:08:41 AM 30.7261 -83.5717 336° Northwest 441 507 32,000  Level Jacksonville Center
Sun 11:09:41 AM 30.8386 -83.6233 338° Northwest 441 507 32,000  Level Jacksonville Center
Sun 11:10:41 AM 30.9531 -83.6800 337° Northwest 441 507 32,000  Level Jacksonville Center
Sun 11:11:41 AM 31.0633 -83.7342 337° Northwest 441 507 32,000  Level Jacksonville Center
Sun 11:13:45 AM 31.2956 -83.8494 337° Northwest 435 501 32,000  Level Atlanta Center
Sun 11:14:45 AM 31.4083 -83.9075 336° Northwest 440 506 32,000  Level Atlanta Center
Sun 11:15:45 AM 31.5253 -83.9608 339° North 440 506 32,000  Level Atlanta Center
Sun 11:16:45 AM 31.6486 -83.9925 348° North 440 506 32,000  Level Atlanta Center
Sun 11:17:45 AM 31.7736 -84.0169 351° North 447 514 32,000  Level Atlanta Center
Sun 11:18:45 AM 31.8969 -84.0436 350° North 447 514 32,000  Level Atlanta Center
Sun 11:19:45 AM 32.0056 -84.0658 350° North 447 514 32,000  Level Atlanta Center
Sun 11:20:45 AM 32.1264 -84.0953 348° North 447 514 32,000  Level Atlanta Center
Sun 11:21:45 AM 32.2475 -84.1222 349° North 447 514 32,000  Level Atlanta Center
Sun 11:22:45 AM 32.3664 -84.1494 349° North 442 509 32,000  Level Atlanta Center
Sun 11:23:45 AM 32.4875 -84.1767 349° North 442 509 32,000  Level Atlanta Center
Sun 11:24:45 AM 32.6044 -84.2017 350° North 437 503 32,000  Level Atlanta Center
Sun 11:25:45 AM 32.7275 -84.2289 349° North 437 503 32,000  Level Atlanta Center
Sun 11:26:45 AM 32.8569 -84.2639 347° North 432 497 32,000  Level Atlanta Center
Sun 11:27:45 AM 32.9778 -84.2889 350° North 432 497 32,000  Level Atlanta Center
Sun 11:28:45 AM 33.0989 -84.3167 349° North 432 497 32,000  Level Atlanta Center
Sun 11:29:45 AM 33.2200 -84.3442 349° North 432 497 32,000  Level Atlanta Center
Sun 11:30:45 AM 33.3431 -84.3719 349° North 437 503 32,000  Level Atlanta Center
Sun 11:31:45 AM 33.4639 -84.4000 349° North 437 503 32,000  Level Atlanta Center
Sun 11:32:45 AM 33.5850 -84.4278 349° North 437 503 32,000  Level Atlanta Center
Sun 11:33:45 AM 33.7058 -84.4583 348° North 443 510 32,000  Level Atlanta Center
Sun 11:34:45 AM 33.8311 -84.4864 349° North 449 517 32,000  Level Atlanta Center
Sun 11:35:45 AM 33.9542 -84.5172 348° North 449 517 32,000  Level Atlanta Center
Sun 11:36:45 AM 34.0811 -84.5478 349° North 449 517 32,000  Level Atlanta Center
Sun 11:37:45 AM 34.2083 -84.5764 349° North 464 534 32,000  Level Atlanta Center
Sun 11:38:45 AM 34.3336 -84.6047 349° North 464 534 32,000  Level Atlanta Center
Sun 11:39:45 AM 34.4564 -84.6358 348° North 459 528 32,000  Level Atlanta Center
Sun 11:40:45 AM 34.5794 -84.6644 349° North 448 516 32,000  Level Atlanta Center
Sun 11:41:45 AM 34.6983 -84.7006 346° North 448 516 32,000  Level Atlanta Center
Sun 11:42:45 AM 34.8172 -84.7269 350° North 442 509 32,000  Level Atlanta Center
Sun 11:43:45 AM 34.9358 -84.7583 348° North 442 509 32,000  Level Atlanta Center
Sun 11:44:45 AM 35.0442 -84.7847 349° North 436 502 32,000  Level Atlanta Center
Sun 11:45:45 AM 35.1672 -84.8136 349° North 436 502 32,000  Level Atlanta Center
Sun 11:46:45 AM 35.2858 -84.8453 348° North 436 502 32,000  Level Atlanta Center
Sun 11:47:45 AM 35.4044 -84.8769 348° North 436 502 32,000  Level Atlanta Center
Sun 11:48:45 AM 35.5253 -84.9064 349° North 436 502 32,000  Level Atlanta Center
Sun 11:49:45 AM 35.6442 -84.9358 349° North 436 502 32,000  Level Atlanta Center
Sun 11:50:45 AM 35.7628 -84.9728 346° North 431 496 32,000  Level Atlanta Center
Sun 11:52:22 AM 35.9717 -85.0186 350° North 449 517 32,000  Level Indianapolis Center
Sun 11:53:24 AM 36.0869 -85.0469 349° North 439 505 32,000  Level Indianapolis Center
Sun 11:54:26 AM 36.2056 -85.0769 348° North 435 501 32,000  Level Indianapolis Center
Sun 11:55:27 AM 36.3242 -85.1081 348° North 435 501 32,000  Level Indianapolis Center
Sun 11:56:29 AM 36.4658 -85.1439 349° North 432 497 32,000  Level Indianapolis Center
Sun 11:57:31 AM 36.5844 -85.1756 348° North 434 499 32,000  Level Indianapolis Center
Sun 11:58:33 AM 36.7031 -85.2058 348° North 435 501 32,000  Level Indianapolis Center
Sun 11:59:35 AM 36.8214 -85.2364 348° North 433 498 32,000  Level Indianapolis Center
Sun 12:00:36 PM 36.9406 -85.2672 348° North 436 502 32,000  Level Indianapolis Center
Sun 12:01:38 PM 37.0667 -85.3014 348° North 436 502 32,000  Level Indianapolis Center
Sun 12:02:40 PM 37.1856 -85.3339 348° North 436 502 32,000  Level Indianapolis Center
Sun 12:03:42 PM 37.3064 -85.3650 348° North 440 506 32,000  Level Indianapolis Center
Sun 12:04:44 PM 37.4269 -85.3925 350° North 440 506 32,000  Level Indianapolis Center
Sun 12:05:46 PM 37.5708 -85.4203 351° North 444 511 32,000  Level Indianapolis Center
Sun 12:06:48 PM 37.6947 -85.4467 350° North 447 514 32,000  Level Indianapolis Center
Sun 12:07:49 PM 37.8208 -85.4736 350° North 456 525 32,000  Level Indianapolis Center
Sun 12:08:51 PM 37.9608 -85.5003 351° North 469 540 32,000  Level Indianapolis Center
Sun 12:09:53 PM 38.0881 -85.5275 350° North 465 535 32,000  Level Indianapolis Center
Sun 12:10:55 PM 38.2161 -85.5539 351° North 466 536 32,000  Level Indianapolis Center
Sun 12:11:57 PM 38.3417 -85.5806 351° North 459 528 32,000  Level Indianapolis Center
Sun 12:12:58 PM 38.4664 -85.6081 350° North 457 526 32,000  Level Indianapolis Center
Sun 12:14:00 PM 38.5917 -85.6342 351° North 456 525 32,000 -242 Level Indianapolis Center
Sun 12:15:02 PM 38.7256 -85.6625 351° North 454 522 31,500 -629 Descending Indianapolis Center
Sun 12:16:04 PM 38.8497 -85.6894 350° North 453 521 30,700 -726 Descending Indianapolis Center
Sun 12:17:06 PM 38.9747 -85.7156 351° North 457 526 30,000 -629 Descending Indianapolis Center
Sun 12:18:08 PM 39.1281 -85.7489 350° North 466 536 29,400 -484 Descending Indianapolis Center
Sun 12:19:10 PM 39.2569 -85.7769 350° North 472 543 29,000 -195 Descending Indianapolis Center
Sun 12:20:11 PM 39.3872 -85.8056 350° North 476 548 29,000  Level Indianapolis Center
Sun 12:21:13 PM 39.5178 -85.8336 351° North 478 550 29,000  Level Indianapolis Center
Sun 12:22:15 PM 39.6467 -85.8614 351° North 476 548 29,000 -629 Level Indianapolis Center
Sun 12:23:17 PM 39.8011 -85.8950 351° North 476 548 27,700 -1,645 Descending Indianapolis Center
Sun 12:24:19 PM 39.9292 -85.9233 350° North 475 547 25,600 -1,790 Descending Indianapolis Center
Sun 12:25:21 PM 40.0522 -85.9622 346° North 464 534 24,000 -787 Descending Indianapolis Center
Sun 12:26:21 PM 40.1728 -86.0164 341° North 464 534 24,000 -148 Level Chicago Center
Sun 12:27:23 PM 40.2922 -86.0728 340° North 461 531 23,700 -532 Descending Chicago Center
Sun 12:28:25 PM 40.4106 -86.1289 340° North 457 526 22,900 -774 Descending Chicago Center
Sun 12:29:27 PM 40.5494 -86.1967 340° North 449 517 22,100 -1,258 Descending Chicago Center
Sun 12:30:29 PM 40.6644 -86.2506 340° North 442 509 20,300 -2,177 Descending Chicago Center
Sun 12:31:31 PM 40.7678 -86.2975 341° North 421 484 17,600 -2,710 Descending Chicago Center
Sun 12:32:33 PM 40.8731 -86.3478 340° North 408 470 14,700 -2,903 Descending Chicago Center
Sun 12:33:35 PM 40.9972 -86.4083 340° North 398 458 11,600 -1,742 Descending Chicago Center
Sun 12:34:37 PM 41.0750 -86.4978 319° Northwest 382 440 11,100 -581 Descending Chicago Center
Sun 12:35:39 PM 41.1364 -86.6103 306° West 371 427 10,400 -484 Descending Chicago Center
Sun 12:36:41 PM 41.2072 -86.7122 313° West 372 428 10,100 -144 Descending Chicago Center
Sun 12:37:44 PM 41.2753 -86.8100 313° West 365 420 10,100 -48 Level Chicago Center
Sun 12:38:46 PM 41.3531 -86.9200 313° West 343 395 10,000 -774 Descending Chicago Center
Sun 12:39:48 PM 41.4042 -86.9975 311° West 294 338 8,500 -1,452 Descending Chicago Center
Sun 12:40:50 PM 41.4428 -87.0883 300° West 285 328 7,000 -1,210 Descending Chicago Center
Sun 12:41:52 PM 41.4789 -87.1764 299° West 277 319 6,000 -774 Descending Chicago Center
Sun 12:42:54 PM 41.5158 -87.2653 299° West 275 316 5,400 -871 Descending Chicago Center
Sun 12:43:56 PM 41.5581 -87.3672 299° West 266 306 4,200 -677 Descending Chicago Center
Sun 12:44:58 PM 41.5939 -87.4511 300° West 264 304 4,000 -97 Descending Chicago Center
Sun 12:46:00 PM 41.6294 -87.5325 300° West 259 298 4,000 -194 Level Chicago Center
Sun 12:47:02 PM 41.6747 -87.5975 313° West 251 289 3,600 -726 Descending Chicago Center
Sun 12:48:04 PM 41.7136 -87.6522 314° West 229 264 2,500 -726 Descending Chicago Center
Sun 12:49:06 PM 41.7683 -87.6869 335° Northwest 208 239 2,100 -387 Descending Chicago Center
Sun 12:50:08 PM 41.8128 -87.6967 351° North 188 216 1,700 -484 Descending Chicago Center
Sun 12:51:10 PM 41.8006 -87.7289 243° Southwest 163 188 1,100 -581 Descending Chicago Center
Sun 12:53:00 PM 41.7833 -87.7500 14° North  Level FlightAware Approximate

Login

Don't have an account? Register now (free) for customized features, flight alerts, and more!